Aviation Digital Data Service (ADDS)

Output produced by METARs form (0148 UTC 20 January 2022)
found at http://www.aviationweather.gov/metar/data/
 
METAR text: KILE 200056Z AUTO 35016G24KT 10SM CLR 14/04 A3002 RMK AO2 SLP160 T01440039
Conditions at: KILE (KILLEEN MUNI , TX, US) observed 0056 UTC 20 January 2022
Temperature: 14.4°C (58°F)
Dewpoint: 3.9°C (39°F) [RH = 49%]
Pressure (altimeter): 30.02 inches Hg (1016.7 mb)
[Sea-level pressure: 1016.0 mb]
Winds: from the N (350 degrees) at 18 MPH (16 knots; 8.2 m/s)
gusting to 28 MPH (24 knots; 12.3 m/s)
Visibility: 10 or more miles (16+ km)
Ceiling: at least 12,000 feet AGL
Clouds: sky clear below 12,000 feet AGL
Weather: automated observation with no human augmentation;
there may or may not be significant weather present at this time